Weather at Rakovski Airstrip

Public forecast

Using degrees Celsius for public forecast. Weather courtesy of forecast.io.

Closest aviation weather report (METAR) to Rakovski Airstrip

Closest report is Graf Ignatievo Air Base, 10.4 nm (19.2 km) W.

2024/04/24 15:00 (retrieved 32 minutes ago)

LBPG 241500Z 09008KT 8000 HZ FEW050 22/15 Q1003

Closest aviation forecast (TAF) to Rakovski Airstrip

Closest forecast is Plovdiv International Airport, 14.2 nm (26.3 km) SSW.

2024/04/24 12:18 (retrieved 3 hours ago)

TAF LBPD 241100Z 2412/2512 06010KT 9999 BKN050 PROB40 TEMPO 2412/2418 5000 TSRA FEW030CB BKN050 BECMG 2418/2419 VRB04KT TEMPO 2422/2505 3000 BR BKN005 TEMPO 2507/2512 4000 TSRA SCT030CB BKN040